createdAt,value
2018-07-14T00:00:38.803Z,98868.73
2018-07-14T00:03:07.815Z,98857.25
2018-07-14T00:05:36.939Z,98864.25
2018-07-14T00:08:06.088Z,98851.41
2018-07-14T00:10:35.159Z,98853.77
2018-07-14T00:13:04.222Z,98853.20
2018-07-14T00:15:33.220Z,98846.30
2018-07-14T00:18:02.205Z,98840.63
2018-07-14T00:20:31.232Z,98838.69
2018-07-14T00:23:00.324Z,98833.91
2018-07-14T00:25:34.363Z,98842.05
2018-07-14T00:28:03.406Z,98843.57
2018-07-14T00:30:32.399Z,98841.23
2018-07-14T00:33:01.427Z,98847.92
2018-07-14T00:35:30.407Z,98853.30
2018-07-14T00:37:59.381Z,98843.23
2018-07-14T00:40:28.473Z,98849.38
2018-07-14T00:42:57.480Z,98849.05
2018-07-14T00:45:26.508Z,98849.24
2018-07-14T00:47:55.536Z,98844.95
2018-07-14T00:50:24.509Z,98849.51
2018-07-14T00:52:53.504Z,98845.65
2018-07-14T00:55:22.503Z,98844.00
2018-07-14T00:57:51.735Z,98838.12
2018-07-14T01:00:20.955Z,98830.97
2018-07-14T01:02:50.059Z,98836.05
2018-07-14T01:05:19.023Z,98832.09
2018-07-14T01:07:48.046Z,98837.77
2018-07-14T01:10:17.018Z,98841.92
2018-07-14T01:12:45.990Z,98833.80
2018-07-14T01:15:15.082Z,98838.48
2018-07-14T01:17:44.066Z,98842.74
2018-07-14T01:20:13.137Z,98842.34
2018-07-14T01:22:42.104Z,98840.34
2018-07-14T01:25:11.168Z,98844.79
2018-07-14T01:27:40.225Z,98841.85
2018-07-14T01:30:09.304Z,98845.97
2018-07-14T01:32:38.534Z,98849.53
2018-07-14T01:35:08.152Z,98858.58
2018-07-14T01:37:37.191Z,98853.50
2018-07-14T01:40:06.168Z,98852.14
2018-07-14T01:42:35.161Z,98861.13
2018-07-14T01:45:04.199Z,98862.34
2018-07-14T01:47:33.167Z,98862.73
2018-07-14T01:50:02.145Z,98867.00
2018-07-14T01:52:31.164Z,98869.92
2018-07-14T01:55:00.212Z,98869.09
2018-07-14T01:57:29.172Z,98871.44
2018-07-14T01:59:58.192Z,98874.95
2018-07-14T02:02:27.171Z,98874.22
2018-07-14T02:04:56.185Z,98876.57
2018-07-14T02:07:25.237Z,98875.78
2018-07-14T02:09:54.196Z,98873.44
2018-07-14T02:12:23.385Z,98878.42
2018-07-14T02:14:52.352Z,98875.50
2018-07-14T02:17:21.328Z,98879.25
2018-07-14T02:19:50.357Z,98880.97
2018-07-14T02:22:19.319Z,98874.02
2018-07-14T02:24:48.354Z,98883.85
2018-07-14T02:27:17.421Z,98880.42
2018-07-14T02:29:46.415Z,98887.26
2018-07-14T02:32:15.433Z,98885.94
2018-07-14T02:34:44.452Z,98890.88
2018-07-14T02:37:13.443Z,98888.63
2018-07-14T02:39:42.457Z,98892.09
2018-07-14T02:42:11.557Z,98895.17
2018-07-14T02:44:40.676Z,98893.86
2018-07-14T02:47:09.701Z,98898.21
2018-07-14T02:49:38.705Z,98899.53
2018-07-14T02:52:07.748Z,98895.96
2018-07-14T02:57:04.537Z,98898.25
2018-07-14T02:59:33.630Z,98901.13
2018-07-14T03:02:02.588Z,98904.45
2018-07-14T03:04:31.692Z,98899.81
2018-07-14T03:07:00.659Z,98896.55
2018-07-14T03:09:29.644Z,98899.32
2018-07-14T03:11:58.628Z,98903.69
2018-07-14T03:14:27.684Z,98901.05
2018-07-14T03:16:56.680Z,98903.19
2018-07-14T03:19:25.756Z,98907.78
2018-07-14T03:21:54.725Z,98911.15
2018-07-14T03:24:23.745Z,98918.48
2018-07-14T03:26:52.766Z,98907.34
2018-07-14T03:29:21.794Z,98912.66
2018-07-14T03:31:50.771Z,98909.88
2018-07-14T03:34:19.824Z,98923.37
2018-07-14T03:36:48.900Z,98912.42
2018-07-14T03:39:18.083Z,98912.36
2018-07-14T03:41:47.043Z,98910.25
2018-07-14T03:44:16.057Z,98918.44
2018-07-14T03:46:45.149Z,98915.14
2018-07-14T03:49:14.156Z,98917.42
2018-07-14T03:51:43.202Z,98917.14
2018-07-14T03:54:12.220Z,98911.09
2018-07-14T03:56:41.260Z,98913.05
2018-07-14T03:59:10.288Z,98914.91
2018-07-14T04:01:39.261Z,98910.27
2018-07-14T04:04:08.292Z,98914.74
2018-07-14T04:06:37.457Z,98912.14
2018-07-14T04:09:07.309Z,98910.91
2018-07-14T04:11:36.300Z,98913.65
2018-07-14T04:14:05.432Z,98916.41
2018-07-14T04:16:34.480Z,98914.56
2018-07-14T04:19:03.440Z,98917.03
2018-07-14T04:21:32.478Z,98918.22
2018-07-14T04:24:01.448Z,98920.05
2018-07-14T04:26:30.504Z,98920.27
2018-07-14T04:28:59.460Z,98925.67
2018-07-14T04:31:28.495Z,98917.20
2018-07-14T04:33:57.536Z,98916.51
2018-07-14T04:36:26.585Z,98924.24
2018-07-14T04:38:55.556Z,98919.38
2018-07-14T04:41:24.938Z,98930.85
2018-07-14T04:43:54.217Z,98922.93
2018-07-14T04:46:23.307Z,98926.34
2018-07-14T04:48:52.336Z,98920.41
2018-07-14T04:51:21.404Z,98917.61
2018-07-14T04:53:50.521Z,98928.80
2018-07-14T04:56:19.512Z,98924.00
2018-07-14T04:58:48.572Z,98929.00
2018-07-14T05:01:17.672Z,98926.56
2018-07-14T05:03:46.635Z,98933.04
2018-07-14T05:06:15.725Z,98930.87
2018-07-14T05:08:44.784Z,98923.61
2018-07-14T05:11:13.896Z,98930.34
2018-07-14T05:13:42.872Z,98929.95
2018-07-14T05:16:11.893Z,98931.97
2018-07-14T05:18:40.932Z,98932.44
2018-07-14T05:21:09.988Z,98929.12
2018-07-14T05:23:39.137Z,98938.39
2018-07-14T05:26:08.178Z,98943.66
2018-07-14T05:28:37.247Z,98944.64
2018-07-14T05:31:06.269Z,98945.39
2018-07-14T05:33:35.240Z,98943.23
2018-07-14T05:36:04.341Z,98947.64
2018-07-14T05:38:33.304Z,98938.48
2018-07-14T05:41:02.413Z,98941.81
2018-07-14T05:43:31.381Z,98948.63
2018-07-14T05:46:00.407Z,98945.10
2018-07-14T05:48:29.425Z,98950.58
2018-07-14T05:50:58.499Z,98946.59
2018-07-14T05:53:27.537Z,98946.28
2018-07-14T05:55:56.623Z,98947.76
2018-07-14T05:58:25.773Z,98952.86
2018-07-14T06:00:54.757Z,98946.27
2018-07-14T06:03:23.716Z,98946.94
2018-07-14T06:05:52.742Z,98953.62
2018-07-14T06:08:21.852Z,98961.00
2018-07-14T06:10:50.983Z,98951.98
2018-07-14T06:13:19.960Z,98961.80
2018-07-14T06:15:49.097Z,98960.42
2018-07-14T06:18:18.096Z,98955.89
2018-07-14T06:20:47.055Z,98958.78
2018-07-14T06:23:16.041Z,98960.92
2018-07-14T06:25:45.348Z,98956.93
2018-07-14T06:28:14.385Z,98955.14
2018-07-14T06:30:44.300Z,98955.72
2018-07-14T06:33:13.340Z,98956.06
2018-07-14T06:35:42.399Z,98951.37
2018-07-14T06:38:11.499Z,98946.22
2018-07-14T06:40:40.485Z,98954.88
2018-07-14T06:43:09.461Z,98954.81
2018-07-14T06:45:38.439Z,98960.16
2018-07-14T06:48:07.484Z,98955.30
2018-07-14T06:50:36.613Z,98958.02
2018-07-14T06:53:05.640Z,98958.39
2018-07-14T06:55:34.620Z,98959.81
2018-07-14T06:58:03.681Z,98961.20
2018-07-14T07:00:33.319Z,98958.06
2018-07-14T07:03:02.343Z,98959.98
2018-07-14T07:05:31.311Z,98962.09
2018-07-14T07:08:00.295Z,98963.20
2018-07-14T07:10:29.246Z,98963.47
2018-07-14T07:12:58.280Z,98969.06
2018-07-14T07:15:27.284Z,98971.88
2018-07-14T07:17:56.328Z,98971.45
2018-07-14T07:20:25.432Z,98972.52
2018-07-14T07:22:54.548Z,98966.19
2018-07-14T07:25:23.523Z,98969.17
2018-07-14T07:27:52.488Z,98963.90
2018-07-14T07:30:21.502Z,98963.74
2018-07-14T07:32:50.475Z,98966.59
2018-07-14T07:35:19.515Z,98958.73
2018-07-14T07:37:48.507Z,98953.07
2018-07-14T07:40:17.573Z,98956.61
2018-07-14T07:42:46.560Z,98954.34
2018-07-14T07:45:15.544Z,98954.96
2018-07-14T07:47:44.590Z,98953.83
2018-07-14T07:50:13.568Z,98958.45
2018-07-14T07:52:42.550Z,98961.38
2018-07-14T07:55:11.614Z,98960.97
2018-07-14T07:57:40.635Z,98965.09
2018-07-14T08:00:09.621Z,98957.99
2018-07-14T08:02:38.592Z,98958.61
2018-07-14T08:05:07.700Z,98952.70
2018-07-14T08:07:36.723Z,98960.29
2018-07-14T08:10:05.696Z,98952.22
2018-07-14T08:12:34.847Z,98954.50
2018-07-14T08:15:03.901Z,98954.76
2018-07-14T08:17:32.904Z,98951.09
2018-07-14T08:20:02.094Z,98950.13
2018-07-14T08:22:31.076Z,98942.05
2018-07-14T08:25:00.146Z,98947.23
2018-07-14T08:27:29.157Z,98952.41
2018-07-14T08:29:58.194Z,98942.92
2018-07-14T08:32:27.381Z,98937.22
2018-07-14T08:34:56.756Z,98947.66
2018-07-14T08:37:25.795Z,98941.44
2018-07-14T08:39:54.764Z,98949.20
2018-07-14T08:42:25.584Z,98948.27
2018-07-14T08:44:54.711Z,98943.98
2018-07-14T08:47:30.648Z,98943.87
2018-07-14T08:49:59.706Z,98939.77
2018-07-14T08:52:28.761Z,98937.84
2018-07-14T08:54:57.816Z,98937.50
2018-07-14T08:57:26.780Z,98929.09
2018-07-14T08:59:55.852Z,98934.76
2018-07-14T09:02:24.811Z,98937.67
2018-07-14T09:04:53.779Z,98934.51
2018-07-14T09:07:22.993Z,98936.04
2018-07-14T09:09:52.033Z,98936.78
2018-07-14T09:12:21.121Z,98930.91
2018-07-14T09:14:50.072Z,98929.27
2018-07-14T09:17:19.051Z,98922.68
2018-07-14T09:19:48.022Z,98929.69
2018-07-14T09:22:17.007Z,98937.53
2018-07-14T09:24:46.096Z,98931.91
2018-07-14T09:27:15.080Z,98932.70
2018-07-14T09:29:44.112Z,98931.49
2018-07-14T09:32:13.244Z,98917.73
2018-07-14T09:34:42.227Z,98927.50
2018-07-14T09:37:11.185Z,98916.08
2018-07-14T09:39:40.179Z,98915.95
2018-07-14T09:42:09.166Z,98916.17
2018-07-14T09:44:38.234Z,98923.86
2018-07-14T09:47:07.281Z,98916.39
2018-07-14T09:49:36.286Z,98920.71
2018-07-14T09:52:05.369Z,98921.89
2018-07-14T09:54:34.360Z,98915.39
2018-07-14T09:57:03.692Z,98917.67
2018-07-14T09:59:32.748Z,98915.78
2018-07-14T10:02:02.037Z,98919.83
2018-07-14T10:04:31.183Z,98912.28
2018-07-14T10:07:00.319Z,98916.89
2018-07-14T10:09:29.568Z,98900.35
2018-07-14T10:11:58.662Z,98900.31
2018-07-14T10:14:27.683Z,98903.00
2018-07-14T10:16:56.656Z,98900.19
2018-07-14T10:19:25.766Z,98902.41
2018-07-14T10:21:54.801Z,98892.84
2018-07-14T10:24:23.852Z,98892.39
2018-07-14T10:26:52.998Z,98894.09
2018-07-14T10:29:21.963Z,98887.91
2018-07-14T10:31:51.003Z,98888.00
2018-07-14T10:34:20.052Z,98882.64
2018-07-14T10:36:49.422Z,98896.77
2018-07-14T10:39:18.736Z,98893.45
2018-07-14T10:41:48.372Z,98889.09
2018-07-14T10:44:18.748Z,98892.58
2018-07-14T10:46:47.782Z,98896.47
2018-07-14T10:49:16.781Z,98891.15
2018-07-14T10:51:45.829Z,98891.34
2018-07-14T10:54:14.824Z,98882.41
2018-07-14T10:56:43.872Z,98890.63
2018-07-14T10:59:12.843Z,98878.41
2018-07-14T11:01:41.970Z,98875.03
2018-07-14T11:04:10.983Z,98876.34
2018-07-14T11:06:40.116Z,98879.22
2018-07-14T11:09:09.766Z,98880.14
2018-07-14T11:11:38.824Z,98875.11
2018-07-14T11:14:07.996Z,98878.61
2018-07-14T11:16:36.975Z,98874.03
2018-07-14T11:19:07.289Z,98867.84
2018-07-14T11:21:36.348Z,98866.73
2018-07-14T11:24:05.608Z,98854.16
2018-07-14T11:26:34.624Z,98859.02
2018-07-14T11:29:03.645Z,98857.42
2018-07-14T11:31:32.757Z,98847.56
2018-07-14T11:34:01.724Z,98842.65
2018-07-14T11:36:30.763Z,98837.70
2018-07-14T11:38:59.941Z,98837.59
2018-07-14T11:41:29.096Z,98845.89
2018-07-14T11:43:58.075Z,98836.97
2018-07-14T11:46:27.216Z,98826.87
2018-07-14T11:48:56.288Z,98814.66
2018-07-14T11:51:25.290Z,98804.25
2018-07-14T11:53:54.367Z,98814.57
2018-07-14T11:56:26.933Z,98815.38
2018-07-14T11:58:56.153Z,98816.48
2018-07-14T12:01:25.679Z,98813.73
2018-07-14T12:03:55.097Z,98810.77
2018-07-14T12:06:24.192Z,98810.97
2018-07-14T12:08:53.437Z,98809.90
2018-07-14T12:11:22.412Z,98800.48
2018-07-14T12:13:51.488Z,98798.72
2018-07-14T12:16:20.726Z,98791.77
2018-07-14T12:18:49.989Z,98797.83
2018-07-14T12:21:19.340Z,98798.89
2018-07-14T12:23:48.327Z,98800.58
2018-07-14T12:26:17.360Z,98787.35
2018-07-14T12:28:46.431Z,98798.73
2018-07-14T12:31:15.453Z,98802.85
2018-07-14T12:33:44.476Z,98802.44
2018-07-14T12:36:13.505Z,98813.30
2018-07-14T12:38:42.767Z,98807.68
2018-07-14T12:41:11.804Z,98797.73
2018-07-14T12:43:40.796Z,98798.38
2018-07-14T12:46:09.791Z,98786.08
2018-07-14T12:48:38.891Z,98791.77
2018-07-14T12:51:07.952Z,98792.70
2018-07-14T12:53:36.928Z,98796.20
2018-07-14T12:56:06.212Z,98789.45
2018-07-14T12:58:35.261Z,98793.70
2018-07-14T13:01:04.341Z,98783.59
2018-07-14T13:03:33.300Z,98785.02
2018-07-14T13:06:02.381Z,98781.34
2018-07-14T13:08:31.356Z,98790.71
2018-07-14T13:11:00.472Z,98787.39
2018-07-14T13:13:29.532Z,98769.74
2018-07-14T13:15:58.495Z,98776.72
2018-07-14T13:18:27.541Z,98769.50
2018-07-14T13:20:56.609Z,98762.56
2018-07-14T13:23:25.640Z,98773.02
2018-07-14T13:25:54.741Z,98768.73
2018-07-14T13:28:24.005Z,98763.62
2018-07-14T13:30:52.999Z,98763.55
2018-07-14T13:33:22.296Z,98763.84
2018-07-14T13:35:51.249Z,98759.04
2018-07-14T13:38:20.368Z,98750.20
2018-07-14T13:40:49.712Z,98755.02
2018-07-14T13:43:18.726Z,98752.35
2018-07-14T13:45:47.747Z,98750.47
2018-07-14T13:48:16.737Z,98750.23
2018-07-14T13:50:45.961Z,98747.52
2018-07-14T13:53:14.915Z,98748.25
2018-07-14T13:55:44.001Z,98742.69
2018-07-14T13:58:13.021Z,98745.63
2018-07-14T14:00:42.000Z,98735.45
2018-07-14T14:03:10.986Z,98734.37
2018-07-14T14:05:40.036Z,98745.11
2018-07-14T14:08:08.604Z,98736.79
2018-07-14T14:10:37.672Z,98733.84
2018-07-14T14:13:06.876Z,98731.70
2018-07-14T14:15:35.856Z,98729.52
2018-07-14T14:18:04.868Z,98734.38
2018-07-14T14:20:33.857Z,98726.03
2018-07-14T14:23:02.823Z,98735.88
2018-07-14T14:25:32.025Z,98729.52
2018-07-14T14:28:01.011Z,98729.20
2018-07-14T14:30:30.321Z,98726.70
2018-07-14T14:32:59.647Z,98725.34
2018-07-14T14:35:28.884Z,98718.16
2018-07-14T14:37:57.984Z,98724.06
2018-07-14T14:40:27.103Z,98728.66
2018-07-14T14:42:56.228Z,98730.70
2018-07-14T14:45:25.300Z,98729.19
2018-07-14T14:47:54.285Z,98720.07
2018-07-14T14:50:23.282Z,98730.00
2018-07-14T14:52:52.307Z,98722.98
2018-07-14T14:55:21.686Z,98721.38
2018-07-14T14:57:50.945Z,98714.69
2018-07-14T15:00:20.198Z,98713.28
2018-07-14T15:02:49.531Z,98711.13
2018-07-14T15:05:18.604Z,98708.25
2018-07-14T15:07:47.570Z,98704.87
2018-07-14T15:10:16.567Z,98705.75
2018-07-14T15:12:45.541Z,98703.80
2018-07-14T15:15:14.721Z,98694.92
2018-07-14T15:17:43.737Z,98698.09
2018-07-14T15:20:12.769Z,98706.39
2018-07-14T15:22:41.827Z,98691.86
2018-07-14T15:25:10.794Z,98698.06
2018-07-14T15:27:39.816Z,98692.15
2018-07-14T15:30:09.461Z,98693.78
2018-07-14T15:32:38.589Z,98698.09
2018-07-14T15:35:07.852Z,98694.31
2018-07-14T15:37:36.916Z,98690.22
2018-07-14T15:40:06.027Z,98690.74
2018-07-14T15:42:35.056Z,98688.59
2018-07-14T15:45:04.161Z,98684.69
2018-07-14T15:47:33.168Z,98687.31
2018-07-14T15:50:02.204Z,98691.72
2018-07-14T15:52:31.285Z,98687.92
2018-07-14T15:55:00.283Z,98691.92
2018-07-14T15:57:29.321Z,98685.80
2018-07-14T15:59:58.323Z,98690.13
2018-07-14T16:02:27.293Z,98685.90
2018-07-14T16:04:56.391Z,98690.47
2018-07-14T16:07:25.357Z,98690.42
2018-07-14T16:09:54.359Z,98693.25
2018-07-14T16:12:23.389Z,98698.73
2018-07-14T16:14:52.352Z,98685.30
2018-07-14T16:17:21.381Z,98688.50
2018-07-14T16:19:50.421Z,98688.70
2018-07-14T16:22:19.416Z,98679.73
2018-07-14T16:24:48.517Z,98679.97
2018-07-14T16:27:17.580Z,98679.42
2018-07-14T16:29:46.605Z,98680.23
2018-07-14T16:32:15.716Z,98682.80
2018-07-14T16:34:44.716Z,98682.70
2018-07-14T16:37:13.837Z,98681.28
2018-07-14T16:39:42.915Z,98674.22
2018-07-14T16:42:11.960Z,98676.47
2018-07-14T16:44:40.980Z,98678.62
2018-07-14T16:47:09.961Z,98671.72
2018-07-14T16:49:38.948Z,98677.48
2018-07-14T16:52:08.018Z,98677.57
2018-07-14T16:54:37.067Z,98675.40
2018-07-14T16:57:06.175Z,98679.81
2018-07-14T16:59:35.188Z,98675.79
2018-07-14T17:02:04.243Z,98686.33
2018-07-14T17:04:33.382Z,98680.96
2018-07-14T17:07:02.288Z,98681.13
2018-07-14T17:09:31.260Z,98677.98
2018-07-14T17:12:00.297Z,98679.64
2018-07-14T17:14:29.283Z,98682.55
2018-07-14T17:16:58.269Z,98680.06
2018-07-14T17:19:27.260Z,98679.16
2018-07-14T17:21:56.301Z,98677.13
2018-07-14T17:24:25.358Z,98673.24
2018-07-14T17:26:54.400Z,98669.39
2018-07-14T17:29:23.513Z,98675.96
2018-07-14T17:31:52.468Z,98673.64
2018-07-14T17:34:21.429Z,98675.94
2018-07-14T17:36:50.473Z,98684.65
2018-07-14T17:39:19.428Z,98684.92
2018-07-14T17:41:48.421Z,98681.09
2018-07-14T17:44:17.436Z,98689.20
2018-07-14T17:46:46.535Z,98694.27
2018-07-14T17:49:15.567Z,98694.26
2018-07-14T17:51:44.612Z,98696.41
2018-07-14T17:54:13.631Z,98693.83
2018-07-14T17:56:42.611Z,98701.81
2018-07-14T17:59:11.641Z,98703.22
2018-07-14T18:01:40.609Z,98707.32
2018-07-14T18:04:09.587Z,98708.17
2018-07-14T18:06:38.550Z,98709.69
2018-07-14T18:09:09.132Z,98707.73
2018-07-14T18:11:38.144Z,98710.31
2018-07-14T18:14:07.188Z,98717.59
2018-07-14T18:16:36.272Z,98719.56
2018-07-14T18:19:05.267Z,98720.81
2018-07-14T18:21:34.329Z,98725.57
2018-07-14T18:24:03.328Z,98732.91
2018-07-14T18:26:32.319Z,98734.92
2018-07-14T18:29:01.377Z,98730.66
2018-07-14T18:31:30.417Z,98732.22
2018-07-14T18:33:59.408Z,98732.67
2018-07-14T18:36:28.363Z,98735.78
2018-07-14T18:38:57.391Z,98728.65
2018-07-14T18:41:26.392Z,98740.78
2018-07-14T18:43:55.501Z,98747.28
2018-07-14T18:46:24.453Z,98747.38
2018-07-14T18:48:53.432Z,98751.90
2018-07-14T18:51:22.396Z,98750.85
2018-07-14T18:53:51.436Z,98753.96
2018-07-14T18:56:20.423Z,98754.92
2018-07-14T18:58:49.524Z,98753.54
2018-07-14T19:01:18.507Z,98761.87
2018-07-14T19:03:47.533Z,98762.15
2018-07-14T19:06:16.525Z,98756.42
2018-07-14T19:08:45.489Z,98761.78
2018-07-14T19:11:14.479Z,98758.45
2018-07-14T19:13:43.519Z,98760.53
2018-07-14T19:16:12.575Z,98760.95
2018-07-14T19:18:41.668Z,98768.14
2018-07-14T19:21:10.834Z,98771.80
2018-07-14T19:23:39.853Z,98771.54
2018-07-14T19:26:09.015Z,98777.74
2018-07-14T19:28:37.840Z,98772.73
2018-07-14T19:31:06.826Z,98778.31
2018-07-14T19:33:35.940Z,98777.37
2018-07-14T19:36:05.020Z,98777.37
2018-07-14T19:38:34.079Z,98774.84
2018-07-14T19:41:03.128Z,98782.75
2018-07-14T19:43:32.180Z,98783.11
2018-07-14T19:46:01.168Z,98782.88
2018-07-14T19:48:30.244Z,98781.63
2018-07-14T19:50:59.259Z,98784.27
2018-07-14T19:53:28.279Z,98782.28
2018-07-14T19:55:57.343Z,98784.68
2018-07-14T19:58:26.318Z,98783.48
2018-07-14T20:00:55.360Z,98785.56
2018-07-14T20:03:24.372Z,98777.60
2018-07-14T20:05:53.331Z,98791.20
2018-07-14T20:08:22.359Z,98788.70
2018-07-14T20:10:51.372Z,98786.44
2018-07-14T20:13:20.349Z,98785.45
2018-07-14T20:15:49.329Z,98784.27
2018-07-14T20:18:18.296Z,98783.84
2018-07-14T20:20:47.308Z,98781.30
2018-07-14T20:23:16.348Z,98781.36
2018-07-14T20:25:45.304Z,98782.84
2018-07-14T20:28:14.266Z,98781.73
2018-07-14T20:30:43.237Z,98786.25
2018-07-14T20:33:12.318Z,98779.70
2018-07-14T20:35:41.435Z,98781.65
2018-07-14T20:38:10.548Z,98778.11
2018-07-14T20:40:39.557Z,98785.55
2018-07-14T20:43:08.531Z,98788.38
2018-07-14T20:45:37.623Z,98787.77
2018-07-14T20:48:06.588Z,98789.99
2018-07-14T20:50:35.551Z,98789.77
2018-07-14T20:53:04.590Z,98788.88
2018-07-14T20:55:33.645Z,98793.68
2018-07-14T20:58:02.636Z,98793.44
2018-07-14T21:00:31.602Z,98793.16
2018-07-14T21:03:00.637Z,98802.04
2018-07-14T21:05:29.592Z,98802.15
2018-07-14T21:07:58.552Z,98803.19
2018-07-14T21:10:27.593Z,98798.43
2018-07-14T21:12:56.611Z,98804.16
2018-07-14T21:15:25.591Z,98807.95
2018-07-14T21:17:54.559Z,98807.80
2018-07-14T21:20:23.587Z,98808.08
2018-07-14T21:22:52.617Z,98809.12
2018-07-14T21:25:21.647Z,98814.95
2018-07-14T21:27:50.595Z,98810.69
2018-07-14T21:30:19.607Z,98812.73
2018-07-14T21:32:48.660Z,98807.03
2018-07-14T21:35:17.700Z,98814.27
2018-07-14T21:37:46.779Z,98806.53
2018-07-14T21:40:15.938Z,98807.17
2018-07-14T21:42:45.000Z,98807.67
2018-07-14T21:45:13.985Z,98802.40
2018-07-14T21:47:43.028Z,98797.10
2018-07-14T21:50:12.281Z,98808.52
2018-07-14T21:52:41.283Z,98800.70
2018-07-14T21:55:10.271Z,98809.25
2018-07-14T21:57:39.281Z,98806.61
2018-07-14T22:00:08.760Z,98806.45
2018-07-14T22:02:37.771Z,98807.26
2018-07-14T22:05:06.872Z,98809.12
2018-07-14T22:07:35.893Z,98801.47
2018-07-14T22:10:05.024Z,98799.73
2018-07-14T22:12:34.005Z,98802.21
2018-07-14T22:15:03.163Z,98793.76
2018-07-14T22:17:32.040Z,98796.22
2018-07-14T22:20:01.016Z,98794.92
2018-07-14T22:22:30.017Z,98800.02
2018-07-14T22:24:58.990Z,98801.14
2018-07-14T22:27:27.977Z,98798.30
2018-07-14T22:29:56.927Z,98792.64
2018-07-14T22:32:25.895Z,98786.53
2018-07-14T22:34:54.948Z,98792.15
2018-07-14T22:37:23.967Z,98789.50
2018-07-14T22:39:52.956Z,98783.19
2018-07-14T22:42:22.017Z,98786.33
2018-07-14T22:44:51.008Z,98786.25
2018-07-14T22:47:19.964Z,98788.59
2018-07-14T22:49:49.016Z,98790.59
2018-07-14T22:52:18.044Z,98792.83
2018-07-14T22:54:47.249Z,98783.37
2018-07-14T22:57:16.312Z,98785.02
2018-07-14T22:59:45.385Z,98792.12
2018-07-14T23:02:14.335Z,98781.87
2018-07-14T23:04:43.288Z,98782.16
2018-07-14T23:07:12.342Z,98784.61
2018-07-14T23:09:41.302Z,98781.96
2018-07-14T23:12:10.340Z,98777.00
2018-07-14T23:14:39.403Z,98774.35
2018-07-14T23:17:08.472Z,98769.97
2018-07-14T23:19:37.429Z,98778.80
2018-07-14T23:22:06.609Z,98780.44
2018-07-14T23:24:35.755Z,98782.25
2018-07-14T23:27:04.852Z,98781.04
2018-07-14T23:29:33.800Z,98788.05
2018-07-14T23:32:02.801Z,98789.77
2018-07-14T23:34:31.809Z,98785.59
2018-07-14T23:37:00.884Z,98788.02
2018-07-14T23:39:29.929Z,98782.64
2018-07-14T23:41:59.019Z,98784.44
2018-07-14T23:44:28.054Z,98783.63
2018-07-14T23:46:57.000Z,98783.81
2018-07-14T23:49:26.103Z,98787.23
2018-07-14T23:51:55.108Z,98791.39
2018-07-14T23:54:24.126Z,98784.48
2018-07-14T23:56:53.217Z,98785.88
2018-07-14T23:59:22.180Z,98786.47
